Time;durP1;ratioP1;P1;durP2;ratioP2;P2;SDS_P1;SDS_P2;PMS_P1;PMS_P2;Temp;Humidity;BMP_temperature;BMP_pressure;BME280_temperature;BME280_humidity;BME280_pressure;Samples;Min_cycle;Max_cycle;Signal;HPM_P1;HPM_P2
2023/09/25 00:02:07;;;;;;;78.00;44.30;;;;;;;23.23;75.86;100190.43;109562;1252;68585;-53
2023/09/25 00:04:34;;;;;;;85.50;47.20;;;;;;;23.18;75.71;100190.72;109547;1252;72871;-54
2023/09/25 00:07:03;;;;;;;66.30;41.10;;;;;;;23.07;76.06;100194.33;109538;1251;61957;-53
2023/09/25 00:09:30;;;;;;;63.80;35.50;;;;;;;23.02;76.38;100193.39;109576;1251;60243;-54
2023/09/25 00:11:56;;;;;;;59.10;34.70;;;;;;;23.05;76.79;100191.80;109498;1252;73921;-54
2023/09/25 00:14:23;;;;;;;49.70;28.30;;;;;;;23.02;78.87;100187.17;109564;1252;68675;-54
2023/09/25 00:16:50;;;;;;;48.10;27.00;;;;;;;23.10;81.21;100185.27;109606;1251;71169;-54
2023/09/25 00:19:17;;;;;;;35.10;25.70;;;;;;;23.28;79.78;100183.19;109589;1250;60518;-55
2023/09/25 00:21:43;;;;;;;37.60;25.20;;;;;;;23.22;80.29;100185.60;109641;1251;58958;-55
2023/09/25 00:24:10;;;;;;;41.90;26.90;;;;;;;23.13;80.36;100185.67;109683;1251;73231;-55
2023/09/25 00:26:37;;;;;;;42.30;26.40;;;;;;;23.12;80.20;100181.81;109747;1251;67408;-55
2023/09/25 00:29:04;;;;;;;33.90;22.60;;;;;;;23.09;80.38;100185.31;109700;1251;71408;-54
2023/09/25 00:31:31;;;;;;;39.20;25.20;;;;;;;22.99;81.02;100187.52;109640;1253;60453;-54
2023/09/25 00:33:58;;;;;;;30.20;23.70;;;;;;;22.94;81.89;100184.45;109720;1250;59204;-54
2023/09/25 00:36:25;;;;;;;27.00;22.60;;;;;;;22.93;81.92;100182.70;109747;1250;73458;-54
2023/09/25 00:38:52;;;;;;;31.60;23.50;;;;;;;23.07;81.37;100185.02;109746;1251;68884;-54
2023/09/25 00:41:20;;;;;;;32.30;23.90;;;;;;;23.11;80.99;100190.20;109701;1251;71192;-54
2023/09/25 00:43:46;;;;;;;33.20;24.40;;;;;;;23.10;81.28;100194.20;109553;1251;60523;-55
2023/09/25 00:46:13;;;;;;;34.10;26.30;;;;;;;23.17;81.33;100193.73;109745;1250;60300;-54
2023/09/25 00:48:42;;;;;;;39.50;25.70;;;;;;;23.16;81.20;100191.91;109772;1251;72536;-53
2023/09/25 00:51:09;;;;;;;33.30;25.70;;;;;;;23.04;81.67;100189.72;109381;1251;68743;-54
2023/09/25 00:53:36;;;;;;;35.80;25.30;;;;;;;22.85;82.62;100189.75;109725;1251;70701;-54
2023/09/25 00:56:03;;;;;;;38.30;25.90;;;;;;;22.70;84.59;100193.20;109718;1251;61956;-54
2023/09/25 00:58:30;;;;;;;34.10;25.80;;;;;;;22.61;86.39;100197.09;109642;1250;59894;-54
2023/09/25 01:00:56;;;;;;;27.40;23.80;;;;;;;22.70;86.15;100201.28;109396;1251;74566;-54
2023/09/25 01:03:23;;;;;;;26.20;21.60;;;;;;;22.74;84.77;100201.06;109398;1251;67776;-55
2023/09/25 01:05:50;;;;;;;28.90;21.10;;;;;;;22.74;83.68;100202.33;109680;1251;71463;-53
2023/09/25 01:08:17;;;;;;;26.50;22.70;;;;;;;22.58;84.28;100204.54;109708;1251;60740;-53
2023/09/25 01:10:44;;;;;;;26.50;21.50;;;;;;;22.53;84.94;100200.98;109734;1250;58921;-54
2023/09/25 01:13:11;;;;;;;31.00;22.40;;;;;;;22.60;84.53;100198.98;109649;1252;74971;-54
2023/09/25 01:15:38;;;;;;;31.50;24.60;;;;;;;22.59;84.88;100202.16;109398;1252;69142;-54
2023/09/25 01:18:05;;;;;;;26.20;22.80;;;;;;;22.72;85.17;100210.38;109591;1251;71359;-54
2023/09/25 01:20:32;;;;;;;30.80;24.10;;;;;;;22.85;85.05;100207.27;109501;1252;60568;-54
2023/09/25 01:22:59;;;;;;;29.20;24.10;;;;;;;22.93;84.52;100207.17;109624;1251;59102;-56
2023/09/25 01:25:26;;;;;;;30.50;23.70;;;;;;;22.87;84.86;100208.08;109424;1253;74392;-54
2023/09/25 01:27:52;;;;;;;29.50;23.90;;;;;;;22.90;85.17;100208.83;109536;1251;67219;-55
2023/09/25 01:30:19;;;;;;;27.50;22.10;;;;;;;22.97;84.49;100210.96;109255;1251;71223;-54
2023/09/25 01:32:46;;;;;;;27.00;23.50;;;;;;;22.68;86.40;100201.19;109609;1252;59769;-55
2023/09/25 01:35:20;;;;;;;32.80;26.00;;;;;;;22.71;86.90;100197.00;109565;1252;60136;-54
2023/09/25 01:37:48;;;;;;;28.90;24.70;;;;;;;22.70;87.27;100199.77;109578;1252;73161;-54
2023/09/25 01:40:18;;;;;;;32.70;24.20;;;;;;;22.63;86.78;100198.89;109586;1252;67275;-54
2023/09/25 01:42:45;;;;;;;33.00;24.50;;;;;;;22.57;86.77;100203.61;109549;1252;72667;-54
2023/09/25 01:45:13;;;;;;;28.30;24.90;;;;;;;22.51;87.27;100205.27;109297;1252;61773;-54
2023/09/25 01:47:41;;;;;;;35.40;25.70;;;;;;;22.61;86.70;100207.80;109552;1252;60153;-54
2023/09/25 01:50:10;;;;;;;;;;;;;;;22.57;86.64;100207.30;109652;1253;74357;-53
2023/09/25 01:52:37;;;;;;;42.40;29.40;;;;;;;22.67;86.03;100201.89;109610;1252;67182;-53
2023/09/25 01:55:04;;;;;;;63.20;38.50;;;;;;;22.73;85.46;100207.02;109582;1251;70772;-54
2023/09/25 01:57:32;;;;;;;80.40;48.70;;;;;;;22.66;85.66;100204.66;109580;1252;60187;-54
2023/09/25 01:59:58;;;;;;;82.80;50.40;;;;;;;22.57;86.72;100201.48;109590;1252;60158;-54
2023/09/25 02:02:25;;;;;;;80.70;47.70;;;;;;;22.38;88.02;100204.52;109592;1252;74711;-54
2023/09/25 02:04:52;;;;;;;83.30;46.00;;;;;;;22.34;88.70;100207.91;109578;1253;68508;-54
2023/09/25 02:07:21;;;;;;;74.90;45.20;;;;;;;22.43;88.13;100208.42;109529;1252;72973;-54
2023/09/25 02:09:48;;;;;;;;;;;;;;;22.28;88.61;100214.35;109623;1251;61798;-55
2023/09/25 02:12:14;;;;;;;73.00;42.80;;;;;;;22.23;88.69;100221.30;109591;1252;59838;-56
2023/09/25 02:14:41;;;;;;;71.10;42.30;;;;;;;22.25;88.00;100221.07;109685;1252;74647;-53
2023/09/25 02:17:08;;;;;;;85.90;50.30;;;;;;;22.16;88.31;100213.55;109564;1250;67485;-54
2023/09/25 02:19:34;;;;;;;98.30;54.70;;;;;;;22.14;87.99;100216.88;109620;1252;72538;-54
2023/09/25 02:22:03;;;;;;;107.60;59.50;;;;;;;22.04;88.22;100216.89;109588;1251;60478;-53
2023/09/25 02:24:30;;;;;;;112.70;61.30;;;;;;;21.99;88.49;100224.52;109717;1251;60160;-53
2023/09/25 02:26:57;;;;;;;70.40;41.60;;;;;;;22.06;88.23;100225.71;109730;1251;73490;-54
2023/09/25 02:29:24;;;;;;;70.20;43.00;;;;;;;22.01;89.19;100232.05;109302;1251;68433;-54
2023/09/25 02:31:51;;;;;;;46.40;34.10;;;;;;;22.04;89.75;100228.60;109655;1251;72833;-54
2023/09/25 02:34:19;;;;;;;36.70;28.20;;;;;;;22.02;90.48;100230.30;109726;1250;60506;-54
2023/09/25 02:36:45;;;;;;;30.60;25.90;;;;;;;22.10;90.88;100230.83;109361;1251;59990;-54
2023/09/25 02:39:16;;;;;;;32.60;26.40;;;;;;;22.28;90.66;100232.44;109757;1250;73218;-54
2023/09/25 02:41:42;;;;;;;32.60;23.80;;;;;;;22.39;90.38;100239.55;109691;1251;67331;-53
2023/09/25 02:44:09;;;;;;;28.50;23.40;;;;;;;22.47;90.43;100241.52;109734;1251;71372;-54
2023/09/25 02:46:36;;;;;;;28.70;23.80;;;;;;;22.53;90.50;100239.32;109694;1251;62000;-53
2023/09/25 02:49:03;;;;;;;30.60;23.90;;;;;;;22.71;89.66;100242.04;109703;1251;60136;-52
2023/09/25 02:51:29;;;;;;;38.20;24.30;;;;;;;22.65;90.34;100241.11;109724;1251;73507;-54
2023/09/25 02:53:57;;;;;;;33.40;22.90;;;;;;;22.58;91.09;100246.04;109684;1251;68545;-55
2023/09/25 02:56:24;;;;;;;28.30;21.90;;;;;;;22.67;90.95;100243.97;109704;1251;72694;-54
2023/09/25 02:58:50;;;;;;;34.60;24.50;;;;;;;22.65;91.21;100242.87;109361;1251;59811;-54
2023/09/25 03:01:17;;;;;;;28.50;23.00;;;;;;;22.76;90.77;100245.40;109642;1251;58841;-54
2023/09/25 03:03:45;;;;;;;32.40;23.70;;;;;;;22.76;90.49;100247.85;109707;1250;73287;-54
2023/09/25 03:06:11;;;;;;;26.70;22.80;;;;;;;22.83;90.28;100247.61;109727;1251;68503;-55
2023/09/25 03:08:38;;;;;;;30.40;23.00;;;;;;;22.90;89.93;100251.45;109728;1250;72681;-53
2023/09/25 03:11:05;;;;;;;27.70;22.90;;;;;;;22.74;91.04;100251.31;109693;1251;61624;-54
2023/09/25 03:13:32;;;;;;;26.70;21.70;;;;;;;22.63;91.86;100249.81;109286;1252;60138;-54
2023/09/25 03:15:59;;;;;;;28.20;22.50;;;;;;;22.76;91.37;100254.64;109592;1251;74380;-53
2023/09/25 03:18:25;;;;;;;26.10;22.30;;;;;;;22.63;92.17;100254.58;109593;1253;68450;-54
2023/09/25 03:20:53;;;;;;;32.10;23.70;;;;;;;22.63;92.70;100258.36;109603;1251;72737;-53
2023/09/25 03:23:20;;;;;;;33.60;23.50;;;;;;;22.81;91.81;100262.83;109568;1252;60581;-53
2023/09/25 03:25:46;;;;;;;29.50;23.30;;;;;;;22.91;91.40;100272.28;109332;1251;59206;-54
2023/09/25 03:28:13;;;;;;;27.50;24.20;;;;;;;22.84;91.76;100268.30;109643;1252;75228;-54
2023/09/25 03:30:40;;;;;;;41.40;22.40;;;;;;;22.78;92.42;100270.67;109395;1257;67576;-53
2023/09/25 03:33:09;;;;;;;26.00;22.70;;;;;;;22.77;92.98;100272.03;109581;1251;72799;-53
2023/09/25 03:35:37;;;;;;;26.50;22.90;;;;;;;22.74;93.29;100272.23;109329;1252;61994;-54
2023/09/25 03:38:04;;;;;;;;;;;;;;;22.90;92.63;100273.89;109625;1252;58977;-53
2023/09/25 03:40:31;;;;;;;29.50;22.30;;;;;;;22.97;92.44;100275.28;109480;1254;73424;-54
2023/09/25 03:42:57;;;;;;;26.20;21.00;;;;;;;23.09;91.62;100273.35;109216;1254;67530;-54
2023/09/25 03:45:24;;;;;;;37.50;25.90;;;;;;;23.03;92.05;100278.20;109475;1254;71173;-54
2023/09/25 03:47:51;;;;;;;38.80;25.70;;;;;;;23.01;92.37;100282.45;109378;1254;61849;-53
2023/09/25 03:50:18;;;;;;;33.60;23.80;;;;;;;22.93;92.94;100283.36;109493;1254;59120;-54
2023/09/25 03:52:45;;;;;;;36.30;25.60;;;;;;;22.87;93.55;100284.64;109499;1253;74525;-54
2023/09/25 03:55:12;;;;;;;26.50;22.00;;;;;;;22.74;94.80;100283.45;109199;1261;68703;-54
2023/09/25 03:57:38;;;;;;;24.80;18.70;;;;;;;22.75;95.29;100287.58;109534;1253;72697;-54
2023/09/25 04:00:06;;;;;;;25.70;20.00;;;;;;;22.77;95.52;100293.75;109461;1253;60799;-54
2023/09/25 04:02:37;;;;;;;25.80;19.60;;;;;;;22.91;94.69;100304.69;109259;1254;59559;-54
2023/09/25 04:05:04;;;;;;;23.30;18.60;;;;;;;23.07;93.90;100303.20;109524;1254;74454;-54
2023/09/25 04:07:31;;;;;;;20.90;18.70;;;;;;;23.08;93.65;100305.52;109434;1254;68442;-55
2023/09/25 04:09:58;;;;;;;24.90;19.30;;;;;;;23.17;93.12;100303.56;109526;1253;72717;-54
2023/09/25 04:12:25;;;;;;;25.30;17.60;;;;;;;23.20;92.91;100307.41;109621;1253;60709;-55
2023/09/25 04:14:53;;;;;;;24.60;20.30;;;;;;;23.04;93.85;100300.56;109454;1252;59114;-54
2023/09/25 04:17:20;;;;;;;25.10;19.50;;;;;;;23.01;94.18;100309.14;109596;1251;73543;-55
2023/09/25 04:19:48;;;;;;;24.80;18.90;;;;;;;22.85;95.45;100308.71;109648;1251;66171;-55
2023/09/25 04:22:15;;;;;;;23.10;19.30;;;;;;;22.84;95.86;100317.48;109661;1251;71241;-55
2023/09/25 04:24:42;;;;;;;23.80;18.50;;;;;;;22.80;96.54;100318.23;109661;1251;60729;-54
2023/09/25 04:27:09;;;;;;;26.40;21.40;;;;;;;22.99;95.53;100322.66;109467;1251;59305;-54
2023/09/25 04:29:38;;;;;;;25.40;19.80;;;;;;;22.97;94.89;100325.10;109646;1250;142113;-56
2023/09/25 04:32:06;;;;;;;26.70;22.00;;;;;;;22.87;95.56;100324.21;109708;1252;67441;-55
2023/09/25 04:34:35;;;;;;;27.20;21.70;;;;;;;23.13;94.31;100333.23;109637;1251;71398;-55
2023/09/25 04:37:03;;;;;;;26.00;20.60;;;;;;;23.35;92.55;100329.63;109688;1251;60403;-53
2023/09/25 04:39:32;;;;;;;31.40;22.30;;;;;;;23.38;91.87;100329.36;109344;1250;59234;-57
2023/09/25 04:42:02;;;;;;;29.40;21.80;;;;;;;23.30;92.20;100334.01;109296;1251;73734;-55
2023/09/25 04:44:28;;;;;;;28.40;22.40;;;;;;;23.21;92.83;100340.40;109529;1251;68188;-54
2023/09/25 04:46:58;;;;;;;26.80;21.30;;;;;;;23.42;91.62;100343.45;109692;1251;70397;-55
2023/09/25 04:49:25;;;;;;;26.50;20.90;;;;;;;23.53;90.81;100346.28;109697;1251;61730;-54
2023/09/25 04:51:52;;;;;;;24.10;20.80;;;;;;;23.49;90.63;100345.91;109488;1251;59158;-55
2023/09/25 04:54:19;;;;;;;30.70;23.10;;;;;;;23.57;90.38;100349.63;109466;1250;73239;-55
2023/09/25 04:56:46;;;;;;;37.80;28.80;;;;;;;23.58;90.35;100350.21;109552;1251;67573;-55
2023/09/25 04:59:13;;;;;;;51.80;34.30;;;;;;;23.51;90.20;100350.54;109177;1251;72541;-55
2023/09/25 05:01:39;;;;;;;50.70;33.90;;;;;;;23.71;88.94;100354.61;109528;1251;60518;-54
2023/09/25 05:04:06;;;;;;;51.70;34.10;;;;;;;23.81;88.70;100359.73;109724;1251;58946;-54
2023/09/25 05:06:33;;;;;;;40.40;30.20;;;;;;;23.93;88.26;100362.55;109443;1251;74737;-53
2023/09/25 05:09:00;;;;;;;36.30;25.20;;;;;;;24.01;87.17;100366.84;109304;1251;68935;-54
2023/09/25 05:11:26;;;;;;;35.90;26.50;;;;;;;23.95;87.61;100366.11;109635;1251;72472;-56
2023/09/25 05:13:53;;;;;;;30.40;23.00;;;;;;;24.11;86.20;100370.70;109088;1253;60614;-54
2023/09/25 05:16:20;;;;;;;29.70;22.80;;;;;;;24.09;85.69;100369.48;109402;1252;60267;-56
2023/09/25 05:18:47;;;;;;;21.00;18.00;;;;;;;24.01;85.79;100373.27;109514;1252;74431;-54
2023/09/25 05:21:15;;;;;;;22.60;17.90;;;;;;;23.93;86.12;100369.91;109617;1255;68566;-54
2023/09/25 05:23:43;;;;;;;30.60;20.00;;;;;;;23.73;87.42;100374.69;109565;1253;71245;-56
2023/09/25 05:26:12;;;;;;;30.20;22.00;;;;;;;23.58;88.98;100376.70;109561;1253;61769;-55
2023/09/25 05:28:38;;;;;;;30.00;22.20;;;;;;;23.85;87.43;100380.45;109618;1253;59057;-54
2023/09/25 05:31:05;;;;;;;24.90;18.90;;;;;;;24.00;86.43;100386.55;109603;1254;74449;-56
2023/09/25 05:33:32;;;;;;;23.50;18.60;;;;;;;24.11;85.45;100392.73;109254;1253;67286;-55
2023/09/25 05:35:58;;;;;;;31.40;23.40;;;;;;;24.25;84.66;100396.71;109285;1253;70251;-55
2023/09/25 05:38:25;;;;;;;32.90;23.70;;;;;;;24.40;83.26;100397.77;109547;1253;61794;-57
2023/09/25 05:40:53;;;;;;;33.40;24.00;;;;;;;24.46;83.02;100398.02;109552;1255;58882;-56
2023/09/25 05:43:19;;;;;;;32.20;23.40;;;;;;;24.61;81.59;100404.03;109559;1252;74908;-54
2023/09/25 05:45:47;;;;;;;33.20;22.80;;;;;;;24.58;80.66;100401.06;109608;1253;69007;-55
2023/09/25 05:48:13;;;;;;;28.20;20.40;;;;;;;24.71;80.47;100404.27;109418;1253;71409;-54
2023/09/25 05:50:41;;;;;;;24.00;17.30;;;;;;;24.56;80.12;100405.20;109568;1253;62242;-55
2023/09/25 05:53:08;;;;;;;26.30;20.10;;;;;;;24.45;80.79;100406.99;109595;1253;60050;-53
2023/09/25 05:55:35;;;;;;;35.60;19.60;;;;;;;24.46;80.91;100415.02;109609;1253;74409;-54
2023/09/25 05:58:03;;;;;;;26.50;20.20;;;;;;;24.72;79.32;100421.98;109587;1252;67331;-55
2023/09/25 06:00:30;;;;;;;31.40;21.40;;;;;;;24.74;77.95;100419.23;109342;1252;71291;-56
2023/09/25 06:02:57;;;;;;;28.40;19.60;;;;;;;24.72;77.62;100421.56;109548;1254;61916;-54
2023/09/25 06:05:23;;;;;;;35.80;21.50;;;;;;;24.75;77.00;100426.23;109499;1252;60063;-55
2023/09/25 06:07:50;;;;;;;25.90;19.40;;;;;;;24.77;76.64;100425.06;109608;1252;74652;-56
2023/09/25 06:10:18;;;;;;;32.80;21.20;;;;;;;24.82;76.25;100421.86;109564;1254;67526;-54
2023/09/25 06:12:44;;;;;;;28.30;19.20;;;;;;;24.76;75.85;100425.91;109516;1252;71144;-55
2023/09/25 06:15:11;;;;;;;37.40;23.30;;;;;;;24.80;75.65;100428.80;109549;1252;62103;-55
2023/09/25 06:17:39;;;;;;;43.10;27.80;;;;;;;24.95;75.46;100428.98;109603;1251;59206;-55
2023/09/25 06:20:13;;;;;;;43.50;26.40;;;;;;;25.10;74.88;100429.43;109639;1252;74352;-54
2023/09/25 06:22:40;;;;;;;37.40;27.70;;;;;;;25.39;73.17;100431.86;109429;1254;68068;-55
2023/09/25 06:25:11;;;;;;;32.10;24.20;;;;;;;25.68;72.13;100435.42;109550;1253;72424;-55
2023/09/25 06:27:39;;;;;;;39.00;25.20;;;;;;;26.07;68.90;100435.65;109400;1254;60609;-54
2023/09/25 06:30:10;;;;;;;33.10;24.00;;;;;;;25.97;68.05;100434.65;109573;1253;60021;-54
2023/09/25 06:32:37;;;;;;;40.60;26.60;;;;;;;25.89;68.84;100437.41;109615;1255;74635;-55
2023/09/25 06:35:06;;;;;;;35.60;22.40;;;;;;;25.95;68.47;100442.35;109566;1253;67455;-55
2023/09/25 06:37:34;;;;;;;23.40;18.20;;;;;;;26.14;66.79;100448.08;109287;1252;73942;-54
2023/09/25 06:40:15;;;;;;;28.60;18.50;;;;;;;26.36;65.16;100451.73;109534;1253;60738;-54
2023/09/25 06:42:42;;;;;;;30.10;20.20;;;;;;;26.48;64.13;100452.34;109368;1251;60062;-54
2023/09/25 06:45:09;;;;;;;29.10;16.50;;;;;;;26.51;64.00;100451.86;109569;1254;74660;-54
2023/09/25 06:47:36;;;;;;;21.20;16.70;;;;;;;26.41;63.39;100451.59;109295;1252;67632;-55
2023/09/25 06:50:04;;;;;;;23.80;15.80;;;;;;;26.38;62.92;100455.11;109570;1252;71477;-56
2023/09/25 06:52:31;;;;;;;17.30;15.30;;;;;;;26.46;62.54;100460.71;109561;1252;61628;-55
2023/09/25 06:54:57;;;;;;;16.10;14.20;;;;;;;26.48;62.20;100459.63;109496;1252;58848;-54
2023/09/25 06:57:25;;;;;;;16.70;13.20;;;;;;;26.30;63.07;100459.53;109538;1257;74491;-57
2023/09/25 06:59:52;;;;;;;19.10;13.10;;;;;;;26.46;62.83;100458.14;109497;1253;67448;-55
2023/09/25 07:02:18;;;;;;;17.80;13.70;;;;;;;26.46;62.13;100458.91;109528;1252;72688;-55
2023/09/25 07:04:47;;;;;;;32.50;13.40;;;;;;;26.29;62.68;100464.58;109552;1254;60998;-55
2023/09/25 07:07:14;;;;;;;19.70;14.40;;;;;;;26.38;62.24;100469.41;109517;1253;59991;-55
2023/09/25 07:09:41;;;;;;;17.10;13.90;;;;;;;26.73;61.57;100473.80;109415;1252;73384;-55
2023/09/25 07:12:08;;;;;;;19.00;14.00;;;;;;;26.97;59.53;100470.71;109578;1252;68652;-56
2023/09/25 07:14:35;;;;;;;18.30;13.90;;;;;;;27.18;58.94;100475.02;109552;1253;71228;-55
2023/09/25 07:17:02;;;;;;;19.50;13.70;;;;;;;27.28;58.06;100475.67;109511;1253;60961;-54
2023/09/25 07:19:29;;;;;;;15.50;13.20;;;;;;;28.01;55.46;100477.79;109689;1251;60176;-55
2023/09/25 07:21:55;;;;;;;20.90;13.70;;;;;;;28.48;53.19;100478.23;109666;1251;73575;-55
2023/09/25 07:24:22;;;;;;;18.20;12.20;;;;;;;28.46;52.27;100483.52;109687;1251;68765;-66
2023/09/25 07:26:49;;;;;;;15.70;11.90;;;;;;;28.48;51.89;100487.23;109721;1251;71196;-58
2023/09/25 07:29:17;;;;;;;20.30;12.00;;;;;;;28.50;51.90;100490.02;109714;1251;61627;-55
2023/09/25 07:32:04;;;;;;;18.10;13.60;;;;;;;28.80;51.24;100493.59;109793;1250;59937;-56
2023/09/25 07:34:30;;;;;;;22.90;12.40;;;;;;;29.38;49.49;100494.42;109360;1251;74971;-55
2023/09/25 07:36:57;;;;;;;19.20;12.70;;;;;;;29.45;48.05;100496.86;109751;1251;68626;-55
2023/09/25 07:39:24;;;;;;;18.20;12.00;;;;;;;29.36;48.57;100494.63;109691;1251;73129;-56
2023/09/25 07:41:51;;;;;;;16.80;11.80;;;;;;;29.64;47.95;100502.73;109731;1251;60737;-55
2023/09/25 07:44:18;;;;;;;14.60;11.50;;;;;;;30.23;46.54;100511.64;109742;1251;61358;-56
2023/09/25 07:46:47;;;;;;;21.00;12.40;;;;;;;30.69;45.67;100523.66;109776;1251;73270;-55
2023/09/25 07:49:13;;;;;;;16.80;12.20;;;;;;;30.84;44.58;100527.29;109722;1251;68785;-56
2023/09/25 07:51:40;;;;;;;11.90;10.50;;;;;;;30.80;43.90;100527.27;109742;1251;72431;-55
2023/09/25 07:54:08;;;;;;;15.10;11.30;;;;;;;30.61;44.07;100530.46;109737;1251;59189;-55
2023/09/25 07:56:34;;;;;;;23.00;13.30;;;;;;;30.40;44.55;100528.48;109744;1251;60769;-55
2023/09/25 07:59:02;;;;;;;16.50;11.60;;;;;;;30.20;44.60;100527.00;109564;1251;74459;-56
2023/09/25 08:01:29;;;;;;;13.10;10.40;;;;;;;29.93;44.69;100528.88;109736;1251;68188;-56
2023/09/25 08:03:58;;;;;;;13.00;10.50;;;;;;;30.20;44.42;100528.44;109433;1251;71219;-55
2023/09/25 08:06:27;;;;;;;14.80;11.10;;;;;;;30.67;43.91;100530.67;109723;1250;59473;-56
2023/09/25 08:08:57;;;;;;;13.30;10.70;;;;;;;30.99;43.39;100531.84;109738;1251;59024;-56
2023/09/25 08:11:24;;;;;;;15.10;10.30;;;;;;;31.32;42.85;100532.32;109344;1251;74588;-56
2023/09/25 08:13:53;;;;;;;18.30;9.40;;;;;;;31.25;42.32;100532.29;109329;1253;60037;-55
2023/09/25 08:16:22;;;;;;;11.60;9.20;;;;;;;31.13;42.10;100533.50;109542;1252;72980;-56
2023/09/25 08:18:49;;;;;;;13.70;10.40;;;;;;;31.22;41.84;100531.59;109517;1253;61685;-55
2023/09/25 08:21:16;;;;;;;17.70;11.40;;;;;;;31.20;41.91;100531.50;109485;1252;58963;-55
2023/09/25 08:23:43;;;;;;;17.20;11.80;;;;;;;31.45;42.00;100534.77;109554;1251;75641;-55
2023/09/25 08:26:10;;;;;;;14.40;10.40;;;;;;;31.71;41.24;100532.95;109409;1254;59452;-56
2023/09/25 08:28:37;;;;;;;14.10;11.90;;;;;;;31.62;40.65;100536.55;109549;1253;71203;-56
2023/09/25 08:31:04;;;;;;;14.90;10.80;;;;;;;31.58;41.01;100537.05;109527;1252;60035;-56
2023/09/25 08:33:31;;;;;;;13.10;10.50;;;;;;;32.03;39.95;100544.61;109533;1253;58893;-56
2023/09/25 08:35:58;;;;;;;10.90;8.80;;;;;;;32.40;38.58;100542.10;109585;1253;67087;-55
2023/09/25 08:38:24;;;;;;;13.10;8.80;;;;;;;32.28;38.44;100543.84;109515;1253;60087;-55
2023/09/25 08:40:51;;;;;;;12.30;10.10;;;;;;;32.12;38.96;100540.30;109558;1252;63694;-56
2023/09/25 08:43:21;;;;;;;12.00;8.80;;;;;;;32.11;39.22;100538.71;109273;1253;58999;-56
2023/09/25 08:45:49;;;;;;;18.10;10.40;;;;;;;31.99;39.22;100537.04;109617;1252;59062;-57
2023/09/25 08:48:17;;;;;;;15.70;10.70;;;;;;;32.06;38.99;100537.13;109519;1252;64557;-55
2023/09/25 08:50:44;;;;;;;11.70;9.40;;;;;;;32.13;38.64;100536.27;109520;1252;59119;-56
2023/09/25 08:53:11;;;;;;;14.30;9.70;;;;;;;31.94;38.96;100532.77;109607;1253;72633;-56
2023/09/25 08:55:37;;;;;;;10.30;9.20;;;;;;;32.02;38.85;100533.02;109550;1252;58977;-55
2023/09/25 08:58:07;;;;;;;11.00;9.80;;;;;;;32.58;37.89;100532.38;109535;1254;58937;-55
2023/09/25 09:00:34;;;;;;;12.00;10.20;;;;;;;32.41;38.34;100533.05;109550;1253;65827;-57
2023/09/25 09:03:00;;;;;;;18.70;10.70;;;;;;;32.33;38.58;100536.61;109627;1252;59859;-56
2023/09/25 09:05:27;;;;;;;15.20;9.30;;;;;;;32.86;38.27;100533.02;109552;1252;64198;-55
2023/09/25 09:08:09;;;;;;;14.00;9.80;;;;;;;33.32;37.29;100540.08;109534;1254;59023;-55
2023/09/25 09:10:37;;;;;;;13.30;9.60;;;;;;;33.09;37.13;100533.65;109408;1252;59119;-55
2023/09/25 09:13:09;;;;;;;12.60;9.90;;;;;;;32.65;37.65;100530.25;109501;1251;66081;-56
2023/09/25 09:15:38;;;;;;;16.00;9.20;;;;;;;33.00;37.28;100531.34;109548;1253;61369;-56
2023/09/25 09:18:18;;;;;;;16.80;9.00;;;;;;;33.62;36.46;100535.05;109613;1251;62448;-56
2023/09/25 09:20:48;;;;;;;14.50;9.10;;;;;;;33.79;35.27;100538.20;109620;1251;58983;-56
2023/09/25 09:23:15;;;;;;;9.30;7.90;;;;;;;33.48;34.75;100536.46;109410;1251;58954;-56
2023/09/25 09:25:45;;;;;;;10.70;7.80;;;;;;;33.44;34.35;100537.06;109716;1250;64422;-56
2023/09/25 09:28:13;;;;;;;9.10;8.20;;;;;;;33.31;34.55;100536.40;109743;1251;59838;-56
2023/09/25 09:30:40;;;;;;;17.50;8.60;;;;;;;33.11;35.38;100534.23;109735;1250;64080;-56
2023/09/25 09:33:08;;;;;;;12.20;8.30;;;;;;;33.23;35.30;100535.05;109343;1251;59039;-55
2023/09/25 09:35:35;;;;;;;12.10;8.30;;;;;;;33.44;35.10;100537.46;109717;1251;59056;-56
2023/09/25 09:38:02;;;;;;;14.30;7.30;;;;;;;34.10;33.80;100541.88;109743;1250;65853;-56
2023/09/25 09:40:30;;;;;;;14.40;8.10;;;;;;;34.54;32.58;100543.85;109638;1251;59060;-56
2023/09/25 09:42:57;;;;;;;10.90;7.60;;;;;;;34.51;33.07;100549.88;109757;1250;63910;-55
2023/09/25 09:45:24;;;;;;;11.10;8.10;;;;;;;34.60;33.35;100544.98;109647;1251;58959;-56
2023/09/25 09:47:51;;;;;;;13.90;9.30;;;;;;;34.56;33.37;100542.34;109621;1251;61621;-56
2023/09/25 09:50:22;;;;;;;13.50;9.20;;;;;;;33.98;33.73;100541.17;109768;1251;65921;-56
2023/09/25 09:52:49;;;;;;;9.60;7.60;;;;;;;33.58;34.01;100534.71;109439;1251;60164;-55
2023/09/25 09:55:17;;;;;;;9.20;7.70;;;;;;;33.71;34.03;100535.61;109771;1250;65255;-56
2023/09/25 09:57:44;;;;;;;9.80;7.60;;;;;;;33.88;33.64;100532.14;109731;1250;58918;-56
2023/09/25 10:00:11;;;;;;;8.00;6.70;;;;;;;33.66;33.20;100536.05;109748;1250;58938;-56
2023/09/25 10:02:38;;;;;;;10.10;8.00;;;;;;;33.64;33.15;100533.73;109358;1251;66294;-56
2023/09/25 10:05:05;;;;;;;11.20;7.70;;;;;;;33.71;33.77;100530.28;109755;1250;60001;-56
2023/09/25 10:07:33;;;;;;;13.50;7.50;;;;;;;34.23;33.34;100531.45;109578;1251;65019;-57
2023/09/25 10:10:06;;;;;;;11.90;7.40;;;;;;;34.45;32.79;100530.98;109716;1251;58939;-56
2023/09/25 10:12:52;;;;;;;11.40;7.50;;;;;;;34.17;32.75;100535.81;109318;1253;59020;-56
2023/09/25 10:15:22;;;;;;;12.50;6.50;;;;;;;34.38;31.99;100535.19;109188;1256;74852;-55
2023/09/25 10:17:49;;;;;;;12.50;7.10;;;;;;;34.29;31.68;100532.77;109344;1254;59972;-55
2023/09/25 10:20:31;;;;;;;8.20;6.60;;;;;;;34.19;32.28;100532.09;109389;1254;63923;-56
2023/09/25 10:23:18;;;;;;;12.10;7.80;;;;;;;34.48;32.40;100533.78;109325;1254;59055;-56
2023/09/25 10:25:52;;;;;;;12.70;6.70;;;;;;;34.57;32.43;100527.52;109361;1254;59113;-56
2023/09/25 10:28:27;;;;;;;11.90;7.60;;;;;;;34.34;32.25;100527.27;109438;1254;66350;-56
2023/09/25 10:30:57;;;;;;;11.60;7.10;;;;;;;34.21;32.27;100525.65;109396;1254;59106;-55
2023/09/25 10:33:31;;;;;;;15.20;7.00;;;;;;;34.26;31.72;100523.04;109132;1254;62796;-56
2023/09/25 10:36:03;;;;;;;10.30;6.70;;;;;;;34.15;31.44;100518.77;109379;1254;58967;-55
2023/09/25 10:38:33;;;;;;;9.90;6.90;;;;;;;34.29;31.74;100521.61;109369;1254;58985;-58
2023/09/25 10:41:02;;;;;;;12.50;8.10;;;;;;;34.46;31.30;100511.24;109365;1254;75732;-58
2023/09/25 10:43:29;;;;;;;12.70;6.80;;;;;;;34.50;31.57;100511.73;109369;1254;60312;-56
2023/09/25 10:45:56;;;;;;;14.50;7.00;;;;;;;34.78;31.48;100511.02;109294;1252;65025;-56
2023/09/25 10:48:25;;;;;;;9.70;6.00;;;;;;;34.87;31.08;100510.80;109443;1252;59351;-55
2023/09/25 10:50:52;;;;;;;10.60;6.80;;;;;;;34.59;30.89;100506.34;109418;1253;59029;-55
2023/09/25 10:53:19;;;;;;;15.00;6.80;;;;;;;34.40;30.72;100502.94;109564;1252;65786;-56
2023/09/25 10:55:49;;;;;;;19.70;7.70;;;;;;;34.16;30.95;100505.00;109621;1252;61287;-55
2023/09/25 10:58:17;;;;;;;11.70;6.60;;;;;;;34.27;31.50;100503.13;109560;1251;64035;-55
2023/09/25 11:00:46;;;;;;;14.70;6.80;;;;;;;34.58;31.38;100504.03;109517;1252;58926;-55
2023/09/25 11:03:13;;;;;;;10.70;6.60;;;;;;;34.83;30.89;100503.46;109542;1251;58947;-60
2023/09/25 11:05:40;;;;;;;10.60;6.80;;;;;;;34.79;30.38;100500.20;109443;1252;64971;-56
2023/09/25 11:08:13;;;;;;;10.40;6.20;;;;;;;35.09;29.95;100502.62;109637;1253;59461;-56